createdAt,value
2018-05-21T00:00:44.350Z,98388.28
2018-05-21T00:03:11.934Z,98379.33
2018-05-21T00:05:39.334Z,98388.48
2018-05-21T00:08:06.831Z,98381.67
2018-05-21T00:10:34.379Z,98376.41
2018-05-21T00:13:03.879Z,98374.48
2018-05-21T00:15:31.438Z,98379.80
2018-05-21T00:17:58.999Z,98383.23
2018-05-21T00:20:26.474Z,98385.86
2018-05-21T00:22:53.963Z,98379.67
2018-05-21T00:25:21.486Z,98386.30
2018-05-21T00:27:48.983Z,98385.59
2018-05-21T00:30:16.506Z,98388.59
2018-05-21T00:32:44.007Z,98394.09
2018-05-21T00:35:11.486Z,98396.44
2018-05-21T00:37:38.986Z,98396.44
2018-05-21T00:40:06.651Z,98391.69
2018-05-21T00:42:34.123Z,98384.81
2018-05-21T00:45:01.644Z,98385.71
2018-05-21T00:47:29.207Z,98394.56
2018-05-21T00:49:56.721Z,98391.92
2018-05-21T00:52:24.205Z,98390.13
2018-05-21T00:55:03.658Z,98395.50
2018-05-21T00:57:31.227Z,98389.56
2018-05-21T00:59:58.795Z,98385.79
2018-05-21T01:02:26.340Z,98387.74
2018-05-21T01:04:54.819Z,98391.36
2018-05-21T01:07:22.303Z,98396.72
2018-05-21T01:09:49.800Z,98401.32
2018-05-21T01:12:17.278Z,98399.70
2018-05-21T01:14:44.792Z,98394.01
2018-05-21T01:17:12.319Z,98395.67
2018-05-21T01:19:39.867Z,98404.45
2018-05-21T01:22:07.430Z,98401.87
2018-05-21T01:24:34.995Z,98409.14
2018-05-21T01:27:02.473Z,98402.73
2018-05-21T01:29:30.010Z,98402.56
2018-05-21T01:31:57.483Z,98403.72
2018-05-21T01:34:24.978Z,98401.20
2018-05-21T01:36:52.487Z,98402.14
2018-05-21T01:39:19.979Z,98402.05
2018-05-21T01:41:47.471Z,98398.44
2018-05-21T01:44:14.967Z,98392.08
2018-05-21T01:46:42.439Z,98393.42
2018-05-21T01:49:09.932Z,98388.64
2018-05-21T01:51:37.411Z,98391.47
2018-05-21T01:54:04.898Z,98387.48
2018-05-21T01:56:32.367Z,98396.34
2018-05-21T01:59:00.827Z,98389.20
2018-05-21T02:01:28.300Z,98397.96
2018-05-21T02:03:55.770Z,98399.54
2018-05-21T02:06:23.269Z,98397.92
2018-05-21T02:08:50.748Z,98399.91
2018-05-21T02:11:19.241Z,98399.91
2018-05-21T02:13:46.808Z,98399.36
2018-05-21T02:16:14.311Z,98396.91
2018-05-21T02:18:41.794Z,98399.03
2018-05-21T02:21:09.298Z,98404.41
2018-05-21T02:23:36.879Z,98406.45
2018-05-21T02:26:04.375Z,98407.84
2018-05-21T02:28:31.870Z,98402.47
2018-05-21T02:30:59.364Z,98406.79
2018-05-21T02:33:26.860Z,98404.88
2018-05-21T02:35:54.356Z,98402.20
2018-05-21T02:38:21.935Z,98401.64
2018-05-21T02:40:49.442Z,98397.88
2018-05-21T02:43:16.927Z,98405.27
2018-05-21T02:45:44.499Z,98408.41
2018-05-21T02:48:12.066Z,98405.67
2018-05-21T02:50:39.559Z,98399.97
2018-05-21T02:53:07.027Z,98394.06
2018-05-21T02:55:34.606Z,98392.53
2018-05-21T02:58:02.087Z,98390.13
2018-05-21T03:00:29.580Z,98393.94
2018-05-21T03:02:57.060Z,98394.21
2018-05-21T03:05:24.640Z,98392.08
2018-05-21T03:07:52.198Z,98392.41
2018-05-21T03:10:19.687Z,98398.75
2018-05-21T03:12:47.170Z,98391.06
2018-05-21T03:15:14.676Z,98388.55
2018-05-21T03:17:42.235Z,98394.26
2018-05-21T03:20:09.701Z,98389.71
2018-05-21T03:22:37.215Z,98388.73
2018-05-21T03:25:04.685Z,98387.71
2018-05-21T03:27:32.183Z,98392.53
2018-05-21T03:29:59.727Z,98394.34
2018-05-21T03:32:27.390Z,98388.11
2018-05-21T03:34:57.074Z,98387.38
2018-05-21T03:37:24.567Z,98386.96
2018-05-21T03:39:52.039Z,98393.98
2018-05-21T03:42:19.610Z,98390.91
2018-05-21T03:44:47.034Z,98394.77
2018-05-21T03:47:14.531Z,98392.36
2018-05-21T03:49:42.058Z,98390.73
2018-05-21T03:52:09.554Z,98391.38
2018-05-21T03:54:37.048Z,98391.48
2018-05-21T03:57:04.782Z,98397.23
2018-05-21T03:59:44.095Z,98397.14
2018-05-21T04:02:23.509Z,98396.80
2018-05-21T04:04:50.979Z,98391.30
2018-05-21T04:07:19.362Z,98387.07
2018-05-21T04:09:46.847Z,98383.26
2018-05-21T04:12:14.395Z,98386.18
2018-05-21T04:14:41.862Z,98383.17
2018-05-21T04:17:09.515Z,98384.19
2018-05-21T04:19:37.002Z,98385.62
2018-05-21T04:22:04.712Z,98389.09
2018-05-21T04:24:32.186Z,98387.89
2018-05-21T04:26:59.834Z,98378.75
2018-05-21T04:29:27.307Z,98384.53
2018-05-21T04:31:54.916Z,98384.05
2018-05-21T04:34:22.434Z,98378.86
2018-05-21T04:36:49.947Z,98382.66
2018-05-21T04:39:18.216Z,98380.97
2018-05-21T04:41:46.077Z,98391.20
2018-05-21T04:44:13.559Z,98381.20
2018-05-21T04:46:41.041Z,98384.17
2018-05-21T04:49:08.547Z,98385.67
2018-05-21T04:51:36.047Z,98388.02
2018-05-21T04:54:03.545Z,98388.30
2018-05-21T04:56:31.136Z,98395.26
2018-05-21T04:58:58.636Z,98393.85
2018-05-21T05:01:26.270Z,98397.45
2018-05-21T05:03:54.052Z,98394.63
2018-05-21T05:06:21.543Z,98399.14
2018-05-21T05:08:49.055Z,98395.94
2018-05-21T05:11:20.275Z,98397.52
2018-05-21T05:13:47.823Z,98401.53
2018-05-21T05:16:15.296Z,98399.36
2018-05-21T05:18:42.795Z,98405.35
2018-05-21T05:21:10.339Z,98404.84
2018-05-21T05:23:37.895Z,98410.78
2018-05-21T05:26:05.404Z,98406.84
2018-05-21T05:28:32.914Z,98405.12
2018-05-21T05:31:00.468Z,98403.59
2018-05-21T05:33:28.021Z,98398.39
2018-05-21T05:35:55.737Z,98402.84
2018-05-21T05:38:23.192Z,98396.30
2018-05-21T05:40:50.711Z,98400.44
2018-05-21T05:43:18.218Z,98394.52
2018-05-21T05:45:45.695Z,98396.89
2018-05-21T05:48:13.165Z,98395.42
2018-05-21T05:50:40.751Z,98402.24
2018-05-21T05:53:08.223Z,98402.36
2018-05-21T05:55:35.775Z,98403.71
2018-05-21T05:58:03.253Z,98396.66
2018-05-21T06:00:30.751Z,98391.01
2018-05-21T06:02:58.228Z,98392.52
2018-05-21T06:05:25.756Z,98396.49
2018-05-21T06:07:53.259Z,98397.55
2018-05-21T06:10:20.813Z,98400.03
2018-05-21T06:12:48.299Z,98403.19
2018-05-21T06:15:15.887Z,98389.89
2018-05-21T06:17:43.368Z,98393.80
2018-05-21T06:20:11.111Z,98401.52
2018-05-21T06:22:39.399Z,98387.70
2018-05-21T06:25:06.912Z,98389.47
2018-05-21T06:27:34.400Z,98387.92
2018-05-21T06:30:01.949Z,98387.03
2018-05-21T06:32:29.427Z,98390.95
2018-05-21T06:34:56.922Z,98389.96
2018-05-21T06:37:24.402Z,98393.78
2018-05-21T06:39:51.948Z,98393.08
2018-05-21T06:42:19.475Z,98395.05
2018-05-21T06:44:47.003Z,98393.76
2018-05-21T06:47:14.528Z,98395.78
2018-05-21T06:49:42.027Z,98394.08
2018-05-21T06:52:09.515Z,98393.76
2018-05-21T06:54:37.095Z,98391.28
2018-05-21T06:57:04.671Z,98389.17
2018-05-21T06:59:32.195Z,98393.99
2018-05-21T07:01:59.690Z,98399.36
2018-05-21T07:04:27.184Z,98394.77
2018-05-21T07:06:54.691Z,98392.02
2018-05-21T07:09:22.190Z,98398.47
2018-05-21T07:11:49.717Z,98396.48
2018-05-21T07:14:17.186Z,98391.84
2018-05-21T07:16:48.747Z,98384.96
2018-05-21T07:19:16.260Z,98381.86
2018-05-21T07:21:43.763Z,98377.34
2018-05-21T07:24:11.243Z,98378.65
2018-05-21T07:26:38.778Z,98386.71
2018-05-21T07:29:06.251Z,98375.75
2018-05-21T07:31:33.836Z,98382.17
2018-05-21T07:34:01.338Z,98381.36
2018-05-21T07:36:28.848Z,98378.56
2018-05-21T07:38:56.410Z,98377.39
2018-05-21T07:41:24.003Z,98375.18
2018-05-21T07:43:51.580Z,98375.13
2018-05-21T07:46:19.074Z,98370.84
2018-05-21T07:48:46.614Z,98373.74
2018-05-21T07:51:14.241Z,98376.20
2018-05-21T07:53:41.749Z,98367.27
2018-05-21T07:56:09.269Z,98367.66
2018-05-21T07:58:36.765Z,98358.86
2018-05-21T08:01:04.262Z,98357.88
2018-05-21T08:03:31.751Z,98358.48
2018-05-21T08:05:59.243Z,98350.60
2018-05-21T08:08:26.844Z,98358.79
2018-05-21T08:10:54.336Z,98363.36
2018-05-21T08:13:21.878Z,98364.70
2018-05-21T08:15:49.383Z,98361.83
2018-05-21T08:18:16.880Z,98363.17
2018-05-21T08:20:44.459Z,98351.38
2018-05-21T08:23:12.004Z,98345.39
2018-05-21T08:25:39.529Z,98336.59
2018-05-21T08:28:07.079Z,98335.88
2018-05-21T08:30:34.571Z,98336.02
2018-05-21T08:33:02.175Z,98341.53
2018-05-21T08:35:29.668Z,98342.75
2018-05-21T08:37:57.410Z,98338.84
2018-05-21T08:40:24.947Z,98340.03
2018-05-21T08:42:52.447Z,98339.28
2018-05-21T08:45:19.965Z,98342.16
2018-05-21T08:47:47.451Z,98333.17
2018-05-21T08:50:14.923Z,98329.70
2018-05-21T08:52:42.602Z,98329.41
2018-05-21T08:55:10.131Z,98325.75
2018-05-21T08:57:37.592Z,98327.24
2018-05-21T09:00:05.080Z,98321.78
2018-05-21T09:02:32.590Z,98328.33
2018-05-21T09:05:00.070Z,98326.16
2018-05-21T09:07:27.616Z,98324.81
2018-05-21T09:09:55.161Z,98330.06
2018-05-21T09:12:22.713Z,98317.69
2018-05-21T09:14:50.140Z,98317.72
2018-05-21T09:17:17.893Z,98319.22
2018-05-21T09:19:45.521Z,98318.66
2018-05-21T09:22:13.035Z,98318.90
2018-05-21T09:24:40.511Z,98330.91
2018-05-21T09:27:08.031Z,98333.70
2018-05-21T09:29:35.498Z,98324.95
2018-05-21T09:32:02.981Z,98328.60
2018-05-21T09:34:30.583Z,98320.82
2018-05-21T09:36:58.101Z,98321.42
2018-05-21T09:39:25.599Z,98321.12
2018-05-21T09:41:53.122Z,98318.75
2018-05-21T09:44:20.631Z,98320.68
2018-05-21T09:46:48.217Z,98316.08
2018-05-21T09:49:15.783Z,98318.55
2018-05-21T09:51:43.276Z,98315.67
2018-05-21T09:54:10.768Z,98323.00
2018-05-21T09:56:38.253Z,98315.54
2018-05-21T09:59:05.895Z,98316.84
2018-05-21T10:01:33.373Z,98308.45
2018-05-21T10:04:00.932Z,98312.27
2018-05-21T10:06:28.411Z,98309.47
2018-05-21T10:08:55.985Z,98307.47
2018-05-21T10:11:23.460Z,98310.60
2018-05-21T10:13:50.987Z,98303.47
2018-05-21T10:16:18.468Z,98310.30
2018-05-21T10:18:45.959Z,98312.16
2018-05-21T10:21:13.456Z,98308.56
2018-05-21T10:23:40.978Z,98309.72
2018-05-21T10:26:08.513Z,98306.58
2018-05-21T10:28:36.032Z,98306.24
2018-05-21T10:31:03.583Z,98305.08
2018-05-21T10:33:31.085Z,98300.03
2018-05-21T10:35:58.586Z,98302.25
2018-05-21T10:38:26.090Z,98304.08
2018-05-21T10:40:53.584Z,98299.95
2018-05-21T10:43:21.074Z,98297.75
2018-05-21T10:45:48.563Z,98294.73
2018-05-21T10:48:16.101Z,98286.02
2018-05-21T10:50:43.614Z,98285.60
2018-05-21T10:53:11.112Z,98284.66
2018-05-21T10:55:38.627Z,98283.05
2018-05-21T10:58:06.127Z,98276.45
2018-05-21T11:00:33.695Z,98279.27
2018-05-21T11:03:01.192Z,98275.72
2018-05-21T11:05:28.742Z,98274.44
2018-05-21T11:07:56.517Z,98269.58
2018-05-21T11:10:24.142Z,98272.95
2018-05-21T11:12:51.620Z,98270.16
2018-05-21T11:15:19.114Z,98268.56
2018-05-21T11:17:46.587Z,98265.48
2018-05-21T11:20:14.091Z,98261.69
2018-05-21T11:22:41.669Z,98262.59
2018-05-21T11:25:09.353Z,98258.06
2018-05-21T11:27:36.898Z,98255.00
2018-05-21T11:30:04.501Z,98259.28
2018-05-21T11:32:31.991Z,98252.05
2018-05-21T11:34:59.482Z,98251.14
2018-05-21T11:37:27.010Z,98248.83
2018-05-21T11:39:54.502Z,98249.55
2018-05-21T11:42:22.077Z,98248.44
2018-05-21T11:44:49.696Z,98238.42
2018-05-21T11:47:17.211Z,98234.47
2018-05-21T11:49:44.702Z,98230.98
2018-05-21T11:52:12.309Z,98235.01
2018-05-21T11:54:39.831Z,98232.16
2018-05-21T11:57:07.390Z,98236.50
2018-05-21T11:59:34.860Z,98240.46
2018-05-21T12:02:02.508Z,98234.56
2018-05-21T12:04:29.978Z,98239.23
2018-05-21T12:06:57.535Z,98231.63
2018-05-21T12:09:25.087Z,98233.31
2018-05-21T12:11:52.643Z,98232.60
2018-05-21T12:14:20.166Z,98233.63
2018-05-21T12:16:47.759Z,98226.50
2018-05-21T12:19:15.278Z,98229.84
2018-05-21T12:21:42.942Z,98220.47
2018-05-21T12:24:10.603Z,98227.72
2018-05-21T12:26:38.297Z,98224.01
2018-05-21T12:29:05.875Z,98221.77
2018-05-21T12:31:33.359Z,98226.52
2018-05-21T12:34:00.891Z,98219.59
2018-05-21T12:36:29.373Z,98208.50
2018-05-21T12:38:56.838Z,98209.08
2018-05-21T12:41:24.337Z,98199.27
2018-05-21T12:43:51.846Z,98196.61
2018-05-21T12:46:19.414Z,98193.75
2018-05-21T12:48:46.991Z,98195.41
2018-05-21T12:51:14.479Z,98192.13
2018-05-21T12:53:41.968Z,98193.84
2018-05-21T12:56:09.575Z,98197.47
2018-05-21T12:58:37.055Z,98199.53
2018-05-21T13:01:04.566Z,98190.23
2018-05-21T13:03:32.107Z,98185.66
2018-05-21T13:05:59.578Z,98185.74
2018-05-21T13:08:27.111Z,98183.81
2018-05-21T13:10:54.614Z,98166.94
2018-05-21T13:13:22.164Z,98163.75
2018-05-21T13:15:49.638Z,98159.49
2018-05-21T13:18:17.146Z,98153.66
2018-05-21T13:20:44.737Z,98154.63
2018-05-21T13:23:12.259Z,98143.11
2018-05-21T13:25:39.723Z,98141.56
2018-05-21T13:28:10.115Z,98134.61
2018-05-21T13:30:37.775Z,98134.95
2018-05-21T13:33:06.395Z,98134.55
2018-05-21T13:35:33.868Z,98140.50
2018-05-21T13:38:01.350Z,98128.23
2018-05-21T13:40:28.882Z,98134.83
2018-05-21T13:42:56.750Z,98130.08
2018-05-21T13:45:24.638Z,98129.50
2018-05-21T13:47:54.341Z,98131.37
2018-05-21T13:50:23.061Z,98122.88
2018-05-21T13:52:50.797Z,98127.77
2018-05-21T13:55:18.264Z,98127.45
2018-05-21T13:57:45.778Z,98127.35
2018-05-21T14:00:13.305Z,98135.36
2018-05-21T14:02:40.791Z,98145.10
2018-05-21T14:05:08.360Z,98134.85
2018-05-21T14:07:35.890Z,98119.53
2018-05-21T14:10:03.726Z,98123.21
2018-05-21T14:12:31.311Z,98111.02
2018-05-21T14:14:58.894Z,98102.08
2018-05-21T14:17:28.821Z,98105.06
2018-05-21T14:19:56.598Z,98095.98
2018-05-21T14:22:24.096Z,98091.23
2018-05-21T14:24:51.594Z,98098.75
2018-05-21T14:27:19.078Z,98093.58
2018-05-21T14:29:46.613Z,98088.81
2018-05-21T14:32:14.086Z,98089.89
2018-05-21T14:34:41.604Z,98081.97
2018-05-21T14:37:09.075Z,98076.33
2018-05-21T14:39:36.584Z,98078.66
2018-05-21T14:42:04.107Z,98074.31
2018-05-21T14:44:31.658Z,98074.09
2018-05-21T14:46:59.160Z,98074.83
2018-05-21T14:49:26.679Z,98080.23
2018-05-21T14:51:54.243Z,98081.64
2018-05-21T14:54:21.761Z,98084.75
2018-05-21T14:56:52.067Z,98087.30
2018-05-21T14:59:19.611Z,98081.14
2018-05-21T15:01:47.062Z,98082.39
2018-05-21T15:04:14.635Z,98085.00
2018-05-21T15:06:42.200Z,98086.67
2018-05-21T15:09:09.690Z,98079.89
2018-05-21T15:11:37.170Z,98075.23
2018-05-21T15:14:04.735Z,98071.36
2018-05-21T15:16:36.199Z,98074.86
2018-05-21T15:19:03.707Z,98075.88
2018-05-21T15:21:31.174Z,98078.16
2018-05-21T15:23:58.664Z,98077.29
2018-05-21T15:26:29.672Z,98077.92
2018-05-21T15:28:57.155Z,98077.75
2018-05-21T15:31:24.634Z,98076.46
2018-05-21T15:33:52.108Z,98076.05
2018-05-21T15:36:19.595Z,98076.02
2018-05-21T15:38:47.071Z,98071.20
2018-05-21T15:41:14.602Z,98073.06
2018-05-21T15:43:42.097Z,98070.88
2018-05-21T15:46:09.614Z,98079.80
2018-05-21T15:48:37.116Z,98079.48
2018-05-21T15:51:04.606Z,98088.13
2018-05-21T15:53:32.158Z,98089.56
2018-05-21T15:55:59.654Z,98093.50
2018-05-21T15:58:27.158Z,98101.59
2018-05-21T16:00:54.717Z,98092.59
2018-05-21T16:03:22.207Z,98094.03
2018-05-21T16:05:49.714Z,98089.13
2018-05-21T16:08:17.174Z,98092.29
2018-05-21T16:10:44.734Z,98098.05
2018-05-21T16:13:12.214Z,98095.56
2018-05-21T16:15:39.706Z,98099.61
2018-05-21T16:18:07.195Z,98096.35
2018-05-21T16:20:34.693Z,98090.17
2018-05-21T16:23:02.255Z,98085.98
2018-05-21T16:25:29.752Z,98081.83
2018-05-21T16:27:57.290Z,98082.19
2018-05-21T16:30:24.827Z,98079.81
2018-05-21T16:32:52.314Z,98087.08
2018-05-21T16:35:19.802Z,98090.89
2018-05-21T16:37:47.290Z,98088.35
2018-05-21T16:40:14.790Z,98085.59
2018-05-21T16:42:42.315Z,98085.27
2018-05-21T16:45:09.901Z,98076.12
2018-05-21T16:47:37.495Z,98073.18
2018-05-21T16:50:04.976Z,98074.13
2018-05-21T16:52:32.487Z,98074.91
2018-05-21T16:54:59.952Z,98077.45
2018-05-21T16:57:27.441Z,98084.31
2018-05-21T16:59:55.029Z,98094.69
2018-05-21T17:02:22.638Z,98100.73
2018-05-21T17:04:50.183Z,98087.44
2018-05-21T17:07:17.731Z,98095.87
2018-05-21T17:09:45.212Z,98096.00
2018-05-21T17:12:12.835Z,98095.30
2018-05-21T17:14:40.295Z,98097.80
2018-05-21T17:17:07.903Z,98102.68
2018-05-21T17:19:35.382Z,98106.60
2018-05-21T17:22:02.879Z,98115.41
2018-05-21T17:24:30.344Z,98113.92
2018-05-21T17:26:57.893Z,98111.94
2018-05-21T17:29:25.402Z,98106.43
2018-05-21T17:31:52.868Z,98109.81
2018-05-21T17:34:20.359Z,98107.93
2018-05-21T17:36:47.922Z,98104.89
2018-05-21T17:39:15.432Z,98101.09
2018-05-21T17:41:42.926Z,98107.80
2018-05-21T17:44:10.386Z,98104.13
2018-05-21T17:46:38.338Z,98108.73
2018-05-21T17:49:05.924Z,98104.16
2018-05-21T17:51:33.435Z,98105.45
2018-05-21T17:54:00.943Z,98103.86
2018-05-21T17:56:28.423Z,98104.57
2018-05-21T17:58:55.914Z,98106.28
2018-05-21T18:01:23.400Z,98101.70
2018-05-21T18:03:51.442Z,98095.52
2018-05-21T18:06:19.044Z,98102.58
2018-05-21T18:08:48.096Z,98101.45
2018-05-21T18:11:15.599Z,98102.55
2018-05-21T18:13:43.097Z,98103.10
2018-05-21T18:16:10.628Z,98104.48
2018-05-21T18:18:38.113Z,98097.34
2018-05-21T18:21:05.862Z,98106.77
2018-05-21T18:23:33.739Z,98101.02
2018-05-21T18:26:01.290Z,98105.73
2018-05-21T18:28:28.807Z,98102.71
2018-05-21T18:30:56.282Z,98106.66
2018-05-21T18:33:23.773Z,98111.17
2018-05-21T18:35:51.322Z,98115.06
2018-05-21T18:38:18.806Z,98115.25
2018-05-21T18:40:46.302Z,98112.39
2018-05-21T18:43:13.790Z,98116.39
2018-05-21T18:45:41.262Z,98117.50
2018-05-21T18:48:08.798Z,98122.48
2018-05-21T18:50:36.370Z,98120.27
2018-05-21T18:53:03.940Z,98123.48
2018-05-21T18:55:31.435Z,98118.67
2018-05-21T18:57:58.950Z,98113.66
2018-05-21T19:00:26.634Z,98119.68
2018-05-21T19:02:54.221Z,98118.34
2018-05-21T19:05:21.682Z,98125.30
2018-05-21T19:07:49.191Z,98117.17
2018-05-21T19:10:16.746Z,98122.39
2018-05-21T19:12:44.253Z,98111.52
2018-05-21T19:15:16.739Z,98116.03
2018-05-21T19:17:44.345Z,98109.35
2018-05-21T19:20:11.826Z,98107.70
2018-05-21T19:22:39.342Z,98116.07
2018-05-21T19:25:06.822Z,98112.56
2018-05-21T19:27:34.288Z,98112.02
2018-05-21T19:30:01.795Z,98121.06
2018-05-21T19:32:29.271Z,98118.11
2018-05-21T19:34:56.848Z,98116.05
2018-05-21T19:37:24.324Z,98120.69
2018-05-21T19:39:51.883Z,98127.14
2018-05-21T19:42:19.365Z,98127.02
2018-05-21T19:44:46.866Z,98129.48
2018-05-21T19:47:14.426Z,98129.85
2018-05-21T19:49:41.934Z,98124.73
2018-05-21T19:52:09.401Z,98128.70
2018-05-21T19:54:36.947Z,98123.26
2018-05-21T19:57:04.563Z,98124.31
2018-05-21T19:59:32.372Z,98124.16
2018-05-21T20:01:59.867Z,98120.67
2018-05-21T20:04:27.388Z,98115.83
2018-05-21T20:06:54.931Z,98115.59
2018-05-21T20:09:22.426Z,98118.59
2018-05-21T20:11:49.913Z,98116.17
2018-05-21T20:14:17.423Z,98115.09
2018-05-21T20:16:44.895Z,98118.98
2018-05-21T20:19:12.458Z,98117.20
2018-05-21T20:21:39.914Z,98126.66
2018-05-21T20:24:07.436Z,98122.62
2018-05-21T20:26:34.947Z,98121.11
2018-05-21T20:29:02.444Z,98127.45
2018-05-21T20:31:29.950Z,98131.34
2018-05-21T20:33:57.426Z,98133.28
2018-05-21T20:36:24.959Z,98138.40
2018-05-21T20:38:52.452Z,98145.78
2018-05-21T20:41:19.959Z,98144.79
2018-05-21T20:43:47.447Z,98147.80
2018-05-21T20:46:14.993Z,98141.52
2018-05-21T20:48:42.476Z,98143.13
2018-05-21T20:51:09.974Z,98140.31
2018-05-21T20:53:37.479Z,98146.50
2018-05-21T20:56:05.137Z,98144.53
2018-05-21T20:58:32.566Z,98145.91
2018-05-21T21:01:00.046Z,98142.22
2018-05-21T21:03:27.517Z,98146.55
2018-05-21T21:05:55.013Z,98144.55
2018-05-21T21:08:22.716Z,98143.91
2018-05-21T21:10:50.203Z,98147.36
2018-05-21T21:13:18.086Z,98149.28
2018-05-21T21:15:45.591Z,98145.94
2018-05-21T21:18:13.071Z,98142.17
2018-05-21T21:20:40.591Z,98146.20
2018-05-21T21:23:08.150Z,98139.54
2018-05-21T21:25:35.642Z,98140.63
2018-05-21T21:28:03.223Z,98144.09
2018-05-21T21:30:30.722Z,98137.95
2018-05-21T21:32:58.235Z,98140.03
2018-05-21T21:35:25.716Z,98137.69
2018-05-21T21:37:53.210Z,98134.77
2018-05-21T21:40:21.092Z,98125.83
2018-05-21T21:42:48.576Z,98124.89
2018-05-21T21:45:16.092Z,98125.50
2018-05-21T21:47:43.614Z,98124.65
2018-05-21T21:50:11.150Z,98118.47
2018-05-21T21:52:38.674Z,98127.83
2018-05-21T21:55:06.140Z,98135.75
2018-05-21T21:57:33.638Z,98139.69
2018-05-21T22:00:01.110Z,98140.44
2018-05-21T22:02:28.699Z,98144.73
2018-05-21T22:04:56.256Z,98141.80
2018-05-21T22:07:23.750Z,98144.83
2018-05-21T22:09:51.215Z,98144.31
2018-05-21T22:12:18.723Z,98144.48
2018-05-21T22:14:46.256Z,98145.47
2018-05-21T22:17:13.737Z,98134.53
2018-05-21T22:19:41.308Z,98133.02
2018-05-21T22:22:08.800Z,98125.84
2018-05-21T22:24:37.368Z,98123.66
2018-05-21T22:27:04.915Z,98124.98
2018-05-21T22:29:32.379Z,98121.44
2018-05-21T22:31:59.869Z,98124.64
2018-05-21T22:34:27.408Z,98122.95
2018-05-21T22:36:54.942Z,98122.20
2018-05-21T22:39:22.432Z,98123.38
2018-05-21T22:41:49.986Z,98116.14
2018-05-21T22:44:17.474Z,98111.94
2018-05-21T22:46:44.975Z,98112.43
2018-05-21T22:49:12.558Z,98107.27
2018-05-21T22:51:40.018Z,98106.11
2018-05-21T22:54:07.501Z,98104.81
2018-05-21T22:56:35.007Z,98101.02
2018-05-21T22:59:02.570Z,98103.30
2018-05-21T23:01:30.049Z,98110.78
2018-05-21T23:03:57.686Z,98109.61
2018-05-21T23:06:25.151Z,98104.83
2018-05-21T23:08:52.702Z,98100.67
2018-05-21T23:11:20.163Z,98103.13
2018-05-21T23:13:47.761Z,98097.98
2018-05-21T23:16:15.319Z,98097.73
2018-05-21T23:18:42.807Z,98090.64
2018-05-21T23:21:10.302Z,98092.70
2018-05-21T23:23:37.867Z,98087.33
2018-05-21T23:26:05.352Z,98087.33
2018-05-21T23:28:32.882Z,98094.80
2018-05-21T23:31:00.434Z,98091.94
2018-05-21T23:33:28.004Z,98090.39
2018-05-21T23:35:55.559Z,98086.98
2018-05-21T23:38:23.056Z,98081.88
2018-05-21T23:40:50.550Z,98076.46
2018-05-21T23:43:18.172Z,98076.79
2018-05-21T23:45:45.696Z,98075.39
2018-05-21T23:48:13.171Z,98079.30
2018-05-21T23:50:40.716Z,98078.31
2018-05-21T23:53:08.184Z,98078.64
2018-05-21T23:58:08.936Z,98076.81
